Аэропорт: Чертовицкое. Воронеж

ICAO: UUOO

METAR:
2021-10-23 01:30:00
UUOO 230130Z 22003MPS CAVOK 07/01 Q1011 R12/010070 NOSIG RMK QFE744
METAR:
2021-10-22 23:00:00
TAF UUOO 222300Z 2300/2309 24003G08MPS 9999 SCT030